Time;durP1;ratioP1;P1;durP2;ratioP2;P2;SDS_P1;SDS_P2;PMS_P1;PMS_P2;Temp;Humidity;BMP_temperature;BMP_pressure;BME280_temperature;BME280_humidity;BME280_pressure;Samples;Min_cycle;Max_cycle;Signal;HPM_P1;HPM_P2
2022/05/20 00:05:00;;;;;;;4.93;2.63;;;16.90;99.90;;;;;;10348886;28;20108;-58
2022/05/20 00:10:03;;;;;;;11.10;2.50;;;16.90;99.90;;;;;;10349672;28;20488;-58
2022/05/20 00:15:06;;;;;;;5.93;2.97;;;16.90;99.90;;;;;;10350203;28;20128;-58
2022/05/20 00:20:09;;;;;;;9.73;3.38;;;16.80;99.90;;;;;;10347475;28;20053;-58
2022/05/20 00:30:33;;;;;;;10.25;3.72;;;16.80;99.90;;;;;;10342490;28;20112;-57
2022/05/20 00:35:35;;;;;;;11.70;3.70;;;16.80;99.90;;;;;;10347542;28;20046;-58
2022/05/20 00:40:37;;;;;;;5.20;3.60;;;16.80;99.90;;;;;;10344433;28;20053;-58
2022/05/20 00:45:41;;;;;;;8.88;3.85;;;16.60;99.90;;;;;;10348666;28;20081;-58
2022/05/20 00:50:59;;;;;;;9.18;3.03;;;16.70;99.90;;;;;;10344377;28;20515;-57
2022/05/20 00:56:03;;;;;;;4.80;2.80;;;16.70;99.90;;;;;;10346463;28;20407;-58
2022/05/20 01:01:04;;;;;;;9.32;3.33;;;16.70;99.90;;;;;;10330394;28;20057;-57
2022/05/20 01:06:08;;;;;;;4.90;3.28;;;16.70;99.90;;;;;;10348761;28;20165;-57
2022/05/20 01:11:10;;;;;;;7.18;3.25;;;16.70;99.90;;;;;;10347901;28;20053;-57
2022/05/20 01:16:12;;;;;;;9.20;3.88;;;16.70;99.90;;;;;;10343312;28;20057;-59
2022/05/20 01:21:14;;;;;;;7.80;3.35;;;16.60;99.90;;;;;;10345729;28;20042;-59
2022/05/20 01:26:16;;;;;;;11.93;3.55;;;16.50;99.90;;;;;;10346286;28;20057;-59
2022/05/20 01:31:18;;;;;;;6.32;2.97;;;16.40;99.90;;;;;;10343188;28;20037;-58
2022/05/20 01:36:23;;;;;;;6.47;3.72;;;16.40;99.90;;;;;;10346765;28;20050;-58
2022/05/20 01:41:58;;;;;;;11.52;3.83;;;16.20;99.90;;;;;;10347684;28;20947;-59
2022/05/20 01:47:23;;;;;;;10.20;4.38;;;16.20;99.90;;;;;;10313487;28;20061;-59
2022/05/20 01:52:35;;;;;;;9.48;4.30;;;16.10;99.90;;;;;;10342903;28;20099;-59
2022/05/20 01:57:46;;;;;;;8.35;4.03;;;16.20;99.90;;;;;;10326432;28;20053;-58
2022/05/20 02:02:53;;;;;;;9.40;3.80;;;16.20;99.90;;;;;;10328498;28;20448;-59
2022/05/20 02:08:24;;;;;;;8.48;4.10;;;16.20;99.90;;;;;;10347608;28;20046;-59
2022/05/20 02:13:29;;;;;;;9.85;4.30;;;16.20;99.90;;;;;;10339217;28;20045;-59
2022/05/20 02:18:41;;;;;;;12.90;5.75;;;16.20;99.90;;;;;;10348479;28;20484;-59
2022/05/20 02:23:47;;;;;;;9.30;5.22;;;16.20;99.90;;;;;;10356818;28;20119;-58
2022/05/20 02:28:55;;;;;;;12.40;5.95;;;16.20;99.90;;;;;;10357224;28;20049;-60
2022/05/20 02:33:57;;;;;;;8.80;5.30;;;16.10;99.90;;;;;;10360437;28;20552;-59
2022/05/20 02:39:01;;;;;;;13.02;6.53;;;16.20;99.90;;;;;;10360238;28;20041;-58
2022/05/20 02:44:03;;;;;;;12.52;6.65;;;16.10;99.90;;;;;;10356519;28;20100;-58
2022/05/20 02:49:05;;;;;;;11.07;6.22;;;16.10;99.90;;;;;;10360148;28;20053;-58
2022/05/20 02:54:07;;;;;;;17.48;6.90;;;16.10;99.90;;;;;;10344000;28;20081;-59
2022/05/20 03:04:29;;;;;;;16.17;6.53;;;16.10;99.90;;;;;;10357502;28;20124;-59
2022/05/20 03:09:30;;;;;;;15.32;6.05;;;16.10;99.90;;;;;;10357040;28;20447;-58
2022/05/20 03:14:32;;;;;;;14.68;6.40;;;16.10;99.90;;;;;;10357192;28;20093;-59
2022/05/20 03:19:34;;;;;;;16.67;7.10;;;16.10;99.90;;;;;;10358402;28;20057;-59
2022/05/20 03:24:37;;;;;;;14.50;7.03;;;16.20;99.90;;;;;;10357146;28;20054;-59
2022/05/20 03:29:39;;;;;;;11.77;7.10;;;16.20;99.90;;;;;;10354870;28;20057;-59
2022/05/20 03:34:41;;;;;;;12.45;6.35;;;16.20;99.90;;;;;;10327486;28;20104;-63
2022/05/20 03:39:42;;;;;;;12.88;6.78;;;16.30;99.90;;;;;;10347282;28;20045;-62
2022/05/20 03:44:44;;;;;;;14.88;6.72;;;16.30;99.90;;;;;;10354056;28;20115;-63
2022/05/20 03:49:49;;;;;;;11.93;5.40;;;16.40;99.90;;;;;;10348553;28;20155;-63
2022/05/20 03:54:51;;;;;;;13.07;5.70;;;16.40;99.90;;;;;;10351319;28;20045;-63
2022/05/20 03:59:52;;;;;;;8.45;5.32;;;16.30;99.90;;;;;;10349196;28;20045;-63
2022/05/20 04:04:55;;;;;;;11.52;5.68;;;16.40;99.90;;;;;;10345141;28;20508;-62
2022/05/20 04:09:57;;;;;;;11.73;6.03;;;16.40;99.90;;;;;;10346194;28;20431;-63
2022/05/20 04:14:59;;;;;;;7.68;4.93;;;16.40;99.90;;;;;;10350145;28;20459;-63
2022/05/20 04:20:03;;;;;;;7.57;4.88;;;16.40;99.90;;;;;;10348367;28;20041;-64
2022/05/20 04:25:05;;;;;;;7.55;5.00;;;16.30;99.90;;;;;;10332970;28;20045;-64
2022/05/20 04:30:08;;;;;;;8.40;4.90;;;16.20;99.90;;;;;;10349338;28;20092;-63
2022/05/20 04:35:09;;;;;;;10.32;4.40;;;16.20;99.90;;;;;;10347276;28;20538;-64
2022/05/20 04:40:12;;;;;;;9.85;4.25;;;16.10;99.90;;;;;;10346951;28;20049;-64
2022/05/20 04:50:34;;;;;;;12.88;4.03;;;16.20;99.90;;;;;;10345744;28;20425;-65
2022/05/20 04:55:39;;;;;;;9.80;3.90;;;16.30;99.90;;;;;;10348204;28;20045;-63
2022/05/20 05:00:40;;;;;;;6.80;3.92;;;16.40;99.90;;;;;;10349593;28;20489;-64
2022/05/20 05:05:42;;;;;;;13.00;4.60;;;16.10;99.90;;;;;;10347822;28;20054;-65
2022/05/20 05:10:44;;;;;;;9.73;4.60;;;16.40;99.90;;;;;;10344783;28;20782;-65
2022/05/20 05:15:46;;;;;;;8.23;5.10;;;16.50;99.90;;;;;;10317246;28;20211;-66
2022/05/20 05:20:50;;;;;;;10.77;5.95;;;16.40;99.90;;;;;;10340206;28;20056;-66
2022/05/20 05:25:52;;;;;;;9.35;5.03;;;16.40;99.90;;;;;;10344527;28;20078;-66
2022/05/20 05:30:54;;;;;;;11.45;5.45;;;16.40;99.90;;;;;;10343573;28;20057;-65
2022/05/20 05:35:55;;;;;;;9.32;5.60;;;16.30;99.90;;;;;;10345344;28;20120;-65
2022/05/20 05:40:58;;;;;;;13.00;6.63;;;16.40;99.90;;;;;;10347017;28;20073;-66
2022/05/20 05:46:00;;;;;;;13.15;6.07;;;16.40;99.90;;;;;;10346875;28;20038;-66
2022/05/20 05:51:02;;;;;;;12.55;5.70;;;16.40;99.90;;;;;;10344774;28;20369;-65
2022/05/20 05:56:06;;;;;;;13.35;6.40;;;16.50;99.90;;;;;;10342437;28;20493;-66
2022/05/20 06:01:07;;;;;;;9.23;5.18;;;16.50;99.90;;;;;;10328089;28;20488;-66
2022/05/20 06:06:09;;;;;;;13.73;6.85;;;16.50;99.90;;;;;;10341853;28;20716;-64
2022/05/20 06:11:12;;;;;;;14.90;5.95;;;16.60;99.90;;;;;;10342585;28;20062;-66
2022/05/20 06:16:21;;;;;;;15.73;6.50;;;16.50;99.90;;;;;;10344491;28;20104;-65
2022/05/20 06:21:23;;;;;;;12.85;5.53;;;16.50;99.90;;;;;;10345510;28;20135;-66
2022/05/20 06:26:25;;;;;;;11.95;5.70;;;16.50;99.90;;;;;;10344238;28;20108;-65
2022/05/20 06:31:26;;;;;;;8.40;5.30;;;16.60;99.90;;;;;;10328505;28;20455;-66
2022/05/20 06:41:49;;;;;;;12.02;5.07;;;16.70;99.90;;;;;;10346123;28;20096;-67
2022/05/20 06:46:51;;;;;;;9.15;5.13;;;16.80;99.90;;;;;;10344254;28;20053;-62
2022/05/20 06:51:54;;;;;;;13.75;4.72;;;16.90;99.90;;;;;;10346145;28;20104;-63
2022/05/20 06:56:56;;;;;;;10.88;5.30;;;17.00;99.90;;;;;;10345566;28;20081;-63
2022/05/20 07:02:00;;;;;;;8.80;4.72;;;17.10;99.90;;;;;;10344224;28;20065;-61
2022/05/20 07:07:23;;;;;;;11.02;4.45;;;17.20;99.90;;;;;;10344917;28;20081;-63
2022/05/20 07:12:25;;;;;;;8.75;3.72;;;17.30;99.90;;;;;;10354472;28;20062;-63
2022/05/20 07:17:27;;;;;;;9.13;4.03;;;17.30;99.90;;;;;;10350277;28;20057;-64
2022/05/20 07:22:29;;;;;;;10.25;4.78;;;17.40;99.90;;;;;;10350727;28;20505;-63
2022/05/20 07:27:31;;;;;;;7.82;4.13;;;17.60;99.90;;;;;;10350616;28;20108;-64
2022/05/20 07:32:33;;;;;;;10.38;4.10;;;17.80;99.90;;;;;;10353241;28;20064;-63
2022/05/20 07:37:35;;;;;;;8.23;4.38;;;18.00;99.90;;;;;;10335179;28;20053;-63
2022/05/20 07:42:37;;;;;;;4.68;3.17;;;18.10;99.90;;;;;;10351567;28;20080;-63
2022/05/20 07:47:39;;;;;;;4.82;3.42;;;18.20;99.90;;;;;;10350482;28;20124;-63
2022/05/20 07:58:18;;;;;;;5.82;3.40;;;18.50;99.90;;;;;;10347199;28;20116;-61
2022/05/20 08:08:41;;;;;;;3.47;2.63;;;19.00;99.90;;;;;;10347577;28;20061;-62
2022/05/20 08:13:43;;;;;;;8.93;3.42;;;19.20;99.90;;;;;;10350244;28;20120;-62
2022/05/20 08:18:45;;;;;;;5.75;3.15;;;19.30;99.90;;;;;;10346794;28;20061;-62
2022/05/20 08:23:46;;;;;;;5.00;3.38;;;19.40;99.90;;;;;;10347840;28;20104;-60
2022/05/20 08:28:48;;;;;;;5.82;2.90;;;19.40;99.90;;;;;;10349685;28;20128;-62
2022/05/20 08:33:51;;;;;;;7.38;2.80;;;19.50;99.90;;;;;;10349446;28;20046;-62
2022/05/20 08:38:52;;;;;;;3.85;3.08;;;19.60;99.90;;;;;;10345767;28;20057;-62
2022/05/20 08:43:54;;;;;;;5.82;3.67;;;19.80;99.90;;;;;;10350717;28;20045;-62
2022/05/20 08:48:57;;;;;;;6.85;3.92;;;20.10;99.90;;;;;;10347264;28;20161;-62
2022/05/20 08:54:02;;;;;;;7.45;3.90;;;20.10;99.90;;;;;;10345745;28;20062;-62
2022/05/20 08:59:15;;;;;;;9.65;4.10;;;20.30;99.90;;;;;;10348062;28;20076;-61
2022/05/20 09:04:22;;;;;;;7.28;3.95;;;20.30;99.90;;;;;;10347294;28;20049;-62
2022/05/20 09:09:27;;;;;;;6.63;5.00;;;20.40;99.90;;;;;;10347975;28;20060;-62
2022/05/20 09:20:02;;;;;;;10.68;6.22;;;20.60;99.90;;;;;;10344554;28;20049;-59
2022/05/20 09:25:20;;;;;;;6.85;5.72;;;20.90;99.90;;;;;;10346789;28;20061;-61
2022/05/20 09:30:23;;;;;;;8.82;6.63;;;20.70;99.90;;;;;;10346227;28;20128;-59
2022/05/20 09:35:51;;;;;;;9.55;7.47;;;21.10;99.90;;;;;;10344683;28;20045;-60
2022/05/20 09:40:53;;;;;;;9.70;6.75;;;21.30;99.90;;;;;;10345585;28;20045;-60
2022/05/20 09:45:57;;;;;;;9.18;6.90;;;21.50;99.90;;;;;;10346013;28;20042;-60
2022/05/20 09:51:08;;;;;;;12.15;8.13;;;21.60;99.90;;;;;;10347921;28;20045;-60
2022/05/20 09:56:32;;;;;;;11.02;6.75;;;21.60;99.90;;;;;;10346900;28;20077;-60
2022/05/20 10:01:36;;;;;;;10.88;6.85;;;21.80;99.90;;;;;;10344862;28;20053;-60
2022/05/20 10:06:46;;;;;;;12.55;7.03;;;22.10;99.90;;;;;;10345280;28;20397;-60
2022/05/20 10:11:53;;;;;;;10.20;7.10;;;22.20;99.90;;;;;;10342932;28;20492;-60
2022/05/20 10:17:05;;;;;;;14.77;7.15;;;22.30;99.90;;;;;;10343996;28;20050;-60
2022/05/20 10:22:40;;;;;;;9.00;6.10;;;22.80;99.90;;;;;;10343857;28;20050;-60
2022/05/20 10:32:34;;;;;;;9.85;5.72;;;23.00;99.90;;;;;;10344977;28;20046;-60
2022/05/20 10:33:38;;;;;;;10.90;6.32;;;23.50;99.90;;;;;;10343725;28;20058;-61
2022/05/20 10:39:11;;;;;;;10.15;5.70;;;23.60;99.90;;;;;;10342462;28;20054;-61
2022/05/20 10:50:24;;;;;;;;;;;24.00;99.90;;;;;;10348820;28;20049;-59
2022/05/20 10:56:00;;;;;;;6.90;5.28;;;24.40;99.90;;;;;;10335053;28;19933;-59
2022/05/20 11:01:34;;;;;;;10.18;5.70;;;24.80;99.90;;;;;;10344579;28;20385;-60
2022/05/20 11:06:44;;;;;;;11.32;5.57;;;25.10;99.90;;;;;;10346227;28;20050;-60
2022/05/20 11:11:56;;;;;;;9.48;5.13;;;25.50;99.90;;;;;;10344308;28;20046;-60
2022/05/20 11:17:49;;;;;;;12.18;4.85;;;25.60;99.90;;;;;;10346705;28;20056;-59
2022/05/20 11:23:11;;;;;;;6.72;2.78;;;26.00;99.90;;;;;;10349179;28;20053;-59
2022/05/20 11:28:45;;;;;;;4.13;2.20;;;26.50;96.90;;;;;;10351360;28;20050;-59
2022/05/20 11:34:16;;;;;;;5.82;2.55;;;26.70;85.60;;;;;;10345756;28;20042;-60
2022/05/20 11:39:39;;;;;;;4.28;2.17;;;26.80;82.30;;;;;;10338199;28;20041;-59
2022/05/20 11:44:50;;;;;;;10.40;2.75;;;26.50;81.10;;;;;;10347870;28;20061;-59
2022/05/20 11:50:11;;;;;;;7.03;2.60;;;27.00;87.70;;;;;;10345011;28;20062;-58
2022/05/20 11:55:20;;;;;;;6.43;2.83;;;27.20;79.70;;;;;;10344949;28;20058;-58
2022/05/20 12:00:23;;;;;;;6.80;2.95;;;27.10;80.40;;;;;;10345747;28;20045;-59
2022/05/20 12:05:32;;;;;;;5.75;3.20;;;27.00;80.70;;;;;;10351639;28;20105;-58
2022/05/20 12:10:34;;;;;;;11.63;3.50;;;26.80;80.90;;;;;;10331956;28;20057;-59
2022/05/20 12:15:46;;;;;;;6.93;3.40;;;26.70;83.10;;;;;;10350373;28;20037;-58
2022/05/20 12:26:46;;;;;;;6.28;3.63;;;26.20;90.70;;;;;;10271588;28;20069;-59
2022/05/20 12:31:49;;;;;;;7.53;4.25;;;26.00;90.80;;;;;;10346905;28;20100;-57
2022/05/20 12:36:51;;;;;;;8.48;4.47;;;25.70;91.20;;;;;;10348711;28;20046;-58
2022/05/20 12:41:52;;;;;;;6.90;4.13;;;25.60;93.50;;;;;;10350351;28;20050;-58
2022/05/20 12:47:21;;;;;;;12.23;4.60;;;26.00;92.60;;;;;;10349108;28;20500;-58
2022/05/20 12:52:31;;;;;;;7.75;4.60;;;26.50;92.60;;;;;;10349471;28;20054;-58
2022/05/20 12:57:34;;;;;;;7.78;4.43;;;27.10;91.10;;;;;;10350012;28;20365;-58
2022/05/20 13:02:40;;;;;;;11.38;3.80;;;27.30;89.40;;;;;;10349701;28;20084;-59
2022/05/20 13:07:43;;;;;;;12.43;3.33;;;27.30;85.50;;;;;;10349382;28;20054;-58
2022/05/20 13:12:50;;;;;;;4.15;3.00;;;27.60;82.50;;;;;;10347436;28;20057;-59
2022/05/20 13:18:06;;;;;;;6.43;3.03;;;27.30;81.20;;;;;;10347860;28;20053;-59
2022/05/20 13:23:08;;;;;;;6.63;3.15;;;27.00;81.40;;;;;;10347327;28;20060;-58
2022/05/20 13:28:10;;;;;;;5.82;3.65;;;26.60;85.10;;;;;;10346662;28;20046;-58
2022/05/20 13:33:12;;;;;;;7.72;4.18;;;26.30;88.40;;;;;;10332455;28;20042;-58
2022/05/20 13:38:14;;;;;;;5.28;3.40;;;26.20;89.90;;;;;;10343429;28;20042;-59
2022/05/20 13:43:18;;;;;;;9.05;4.15;;;26.00;91.30;;;;;;10346169;28;20042;-60
2022/05/20 13:53:51;;;;;;;8.57;3.90;;;25.80;92.60;;;;;;10346706;28;20046;-61
2022/05/20 13:59:00;;;;;;;;;;;25.80;93.70;;;;;;10347841;28;20641;-61
2022/05/20 14:04:04;;;;;;;8.55;4.45;;;25.70;96.40;;;;;;10348413;28;19922;-59
2022/05/20 14:09:05;;;;;;;5.25;4.18;;;25.80;97.30;;;;;;10346790;28;20256;-59
2022/05/20 14:14:18;;;;;;;7.22;4.85;;;25.80;95.00;;;;;;10345154;28;20069;-59
2022/05/20 14:19:34;;;;;;;8.68;3.70;;;26.00;93.80;;;;;;10345251;28;20099;-59
2022/05/20 14:24:44;;;;;;;7.50;4.35;;;26.20;94.80;;;;;;10346290;28;20358;-59
2022/05/20 14:29:45;;;;;;;6.50;3.80;;;26.40;93.70;;;;;;10346114;28;20555;-59
2022/05/20 14:34:51;;;;;;;11.65;4.25;;;26.30;93.70;;;;;;10346740;28;20510;-59
2022/05/20 14:39:56;;;;;;;6.95;3.40;;;26.20;94.40;;;;;;10344017;28;20081;-59
2022/05/20 14:45:01;;;;;;;8.20;3.63;;;26.30;95.40;;;;;;10346223;28;20041;-59
2022/05/20 14:50:13;;;;;;;5.32;3.45;;;26.20;96.90;;;;;;10348803;28;20042;-60
2022/05/20 14:55:20;;;;;;;11.40;3.60;;;26.10;96.60;;;;;;10343633;28;20053;-60
2022/05/20 15:00:29;;;;;;;5.25;3.03;;;26.10;96.20;;;;;;10347348;28;20077;-60
2022/05/20 15:05:31;;;;;;;4.75;2.65;;;26.10;95.40;;;;;;10345054;28;20054;-60
2022/05/20 15:10:34;;;;;;;8.57;3.20;;;26.50;96.70;;;;;;10343677;28;20058;-61
2022/05/20 15:15:36;;;;;;;10.02;3.80;;;26.70;95.60;;;;;;10344775;28;20054;-61
2022/05/20 15:20:42;;;;;;;6.68;2.20;;;26.90;94.20;;;;;;10345336;28;20049;-61
2022/05/20 15:25:50;;;;;;;7.65;3.00;;;27.30;92.00;;;;;;10345999;28;20099;-61
2022/05/20 15:34:51;;;;;;;8.52;3.10;;;27.80;90.10;;;;;;10352862;28;20054;-59
2022/05/20 15:36:14;;;;;;;6.15;2.20;;;27.50;89.10;;;;;;10352680;28;20451;-59
2022/05/20 15:41:16;;;;;;;9.10;1.90;;;27.30;89.50;;;;;;10350138;28;20480;-59
2022/05/20 15:46:17;;;;;;;4.18;1.58;;;27.00;82.90;;;;;;10352651;28;20112;-59
2022/05/20 15:51:23;;;;;;;5.28;1.13;;;26.80;82.40;;;;;;10349916;28;20050;-61
2022/05/20 15:56:25;;;;;;;7.32;1.42;;;26.70;84.20;;;;;;10349945;28;20078;-59
2022/05/20 16:01:27;;;;;;;3.88;1.20;;;26.50;83.40;;;;;;10351169;28;20046;-59
2022/05/20 16:06:35;;;;;;;5.88;1.50;;;26.40;84.70;;;;;;10347183;28;20594;-59
2022/05/20 16:11:44;;;;;;;6.70;2.38;;;26.40;85.10;;;;;;10346088;28;20041;-60
2022/05/20 16:16:46;;;;;;;6.05;1.75;;;26.30;86.20;;;;;;10349811;28;20046;-60
2022/05/20 16:21:50;;;;;;;4.13;0.90;;;26.00;85.30;;;;;;10349716;28;20054;-60
2022/05/20 16:27:01;;;;;;;9.30;1.00;;;26.00;84.80;;;;;;10352335;28;20136;-60
2022/05/20 16:32:03;;;;;;;4.63;0.85;;;26.00;84.80;;;;;;10350492;28;20061;-60
2022/05/20 16:37:05;;;;;;;3.10;0.98;;;26.20;85.20;;;;;;10348442;28;20543;-60
2022/05/20 16:42:06;;;;;;;7.10;1.10;;;26.30;82.60;;;;;;10350840;28;20131;-60
2022/05/20 16:47:09;;;;;;;5.45;0.82;;;27.00;80.80;;;;;;10349756;28;20100;-60
2022/05/20 16:52:11;;;;;;;5.50;1.00;;;27.60;78.30;;;;;;10350042;28;20115;-58
2022/05/20 17:02:34;;;;;;;4.97;0.80;;;28.10;73.70;;;;;;10340613;28;20046;-58
2022/05/20 17:07:38;;;;;;;5.45;0.82;;;28.20;71.10;;;;;;10345306;28;20321;-58
2022/05/20 17:12:40;;;;;;;5.80;0.73;;;28.10;67.00;;;;;;10302014;28;20481;-59
2022/05/20 17:17:42;;;;;;;5.03;0.70;;;27.90;65.70;;;;;;10304081;28;20097;-59
2022/05/20 17:28:04;;;;;;;4.45;0.85;;;26.90;66.80;;;;;;10295564;28;20042;-59
2022/05/20 17:33:06;;;;;;;2.20;1.02;;;26.50;68.20;;;;;;10306675;28;20038;-58
2022/05/20 17:38:08;;;;;;;1.85;0.70;;;26.30;69.10;;;;;;10343384;23;20054;-90
2022/05/20 17:43:11;;;;;;;4.68;0.80;;;26.20;70.00;;;;;;10303661;28;20081;-91
2022/05/20 17:48:13;;;;;;;5.97;0.80;;;26.00;70.40;;;;;;10325178;28;20567;-89
2022/05/20 17:53:15;;;;;;;13.32;2.28;;;25.80;71.20;;;;;;10314678;28;20050;-89
2022/05/20 17:58:17;;;;;;;8.88;1.00;;;25.70;72.00;;;;;;10304314;28;20047;-93
2022/05/20 18:16:56;;;;;;;0.00;0.00;;;19.40;99.90;;;;;;9962821;28;20049;-94
2022/05/20 18:22:48;;;;;;;0.00;0.00;;;19.20;99.90;;;;;;9940168;28;20068;-93
2022/05/20 18:28:09;;;;;;;0.00;0.00;;;19.10;99.90;;;;;;9997767;28;20044;-93
2022/05/20 18:33:23;;;;;;;0.00;0.00;;;19.00;99.90;;;;;;10208526;28;20054;-94
2022/05/20 18:43:46;;;;;;;0.00;0.00;;;18.80;99.90;;;;;;10311938;28;20441;-92
2022/05/20 18:48:48;;;;;;;0.00;0.00;;;18.80;99.90;;;;;;10297176;28;20093;-92
2022/05/20 18:53:50;;;;;;;0.00;0.00;;;18.80;99.90;;;;;;10299643;28;20058;-92
2022/05/20 18:58:53;;;;;;;0.00;0.00;;;18.70;99.90;;;;;;10294073;28;20056;-91
2022/05/20 19:03:56;;;;;;;0.00;0.00;;;18.40;99.90;;;;;;10300779;28;20054;-92
2022/05/20 19:08:58;;;;;;;0.00;0.00;;;18.30;99.90;;;;;;10336078;28;20489;-91
2022/05/20 19:14:00;;;;;;;0.00;0.00;;;18.30;99.90;;;;;;10312743;28;20125;-91
2022/05/20 19:19:02;;;;;;;0.00;0.00;;;18.20;99.90;;;;;;10318850;28;20050;-90
2022/05/20 19:24:04;;;;;;;0.00;0.00;;;18.20;99.90;;;;;;10312724;28;20094;-91
2022/05/20 19:29:06;;;;;;;0.00;0.00;;;18.10;99.90;;;;;;10300847;28;20059;-91
2022/05/20 19:34:08;;;;;;;0.00;0.00;;;18.10;99.90;;;;;;10291114;28;20065;-91
2022/05/20 19:39:10;;;;;;;0.00;0.00;;;18.10;99.90;;;;;;10322341;28;20051;-93
2022/05/20 19:44:20;;;;;;;0.00;0.00;;;18.10;99.90;;;;;;10324446;28;20038;-91
2022/05/20 19:49:23;;;;;;;0.00;0.00;;;18.10;99.90;;;;;;10320980;28;20046;-92
2022/05/20 19:54:25;;;;;;;0.00;0.00;;;18.10;99.90;;;;;;10322337;28;20045;-92
2022/05/20 20:05:08;;;;;;;0.00;0.00;;;18.10;99.90;;;;;;10347818;28;20050;-91
2022/05/20 20:10:10;;;;;;;0.00;0.00;;;18.00;99.90;;;;;;10316648;28;20042;-91
2022/05/20 20:15:16;;;;;;;0.00;0.00;;;18.00;99.90;;;;;;10322882;28;20549;-92
2022/05/20 20:20:18;;;;;;;0.00;0.00;;;18.00;99.90;;;;;;10320642;28;20042;-92
2022/05/20 20:30:44;;;;;;;0.00;0.00;;;18.00;99.90;;;;;;10309860;28;20046;-90
2022/05/20 20:35:46;;;;;;;0.00;0.00;;;18.00;99.90;;;;;;10335719;28;20053;-90
2022/05/20 20:40:48;;;;;;;0.00;0.00;;;17.80;99.90;;;;;;10342905;28;20054;-91
2022/05/20 20:45:50;;;;;;;0.00;0.00;;;17.60;99.90;;;;;;10339396;28;20053;-90
2022/05/20 20:50:52;;;;;;;0.00;0.00;;;17.30;99.90;;;;;;10327223;28;20125;-91
2022/05/20 20:55:57;;;;;;;0.00;0.00;;;17.00;99.90;;;;;;10336684;28;20093;-91
2022/05/20 21:00:59;;;;;;;0.00;0.00;;;16.80;99.90;;;;;;10270406;23;20509;-59
2022/05/20 21:06:02;;;;;;;0.00;0.00;;;16.50;99.90;;;;;;10288764;28;20058;-57
2022/05/20 21:11:05;;;;;;;0.00;0.00;;;16.30;99.90;;;;;;10289644;28;20104;-58
2022/05/20 21:16:07;;;;;;;0.00;0.00;;;16.10;99.90;;;;;;10286698;28;20043;-58
2022/05/20 21:21:09;;;;;;;0.00;0.00;;;16.00;99.90;;;;;;10288850;28;20043;-59
2022/05/20 21:26:11;;;;;;;0.00;0.00;;;15.90;99.90;;;;;;10289515;28;20047;-57
2022/05/20 21:31:14;;;;;;;0.00;0.00;;;15.70;99.90;;;;;;10292483;28;20631;-58
2022/05/20 21:36:16;;;;;;;0.00;0.00;;;15.70;99.90;;;;;;10289044;28;20057;-57
2022/05/20 21:41:18;;;;;;;0.00;0.00;;;15.60;99.90;;;;;;10288123;28;20658;-57
2022/05/20 21:51:41;;;;;;;0.00;0.00;;;15.40;99.90;;;;;;10286336;28;20160;-57
2022/05/20 21:56:43;;;;;;;3.28;0.50;;;15.40;99.90;;;;;;10285583;28;20050;-57
2022/05/20 22:12:28;;;;;;;0.98;0.85;;;15.50;99.90;;;;;;10296527;28;23171;-59
2022/05/20 22:17:32;;;;;;;2.80;0.75;;;15.50;99.90;;;;;;10291183;28;20668;-58
2022/05/20 22:22:34;;;;;;;1.65;0.70;;;15.50;99.90;;;;;;10288158;28;20112;-58
2022/05/20 22:27:38;;;;;;;2.75;0.80;;;15.40;99.90;;;;;;10294829;28;20093;-59
2022/05/20 22:32:40;;;;;;;1.23;0.82;;;15.40;99.90;;;;;;10291333;28;20050;-59
2022/05/20 22:37:43;;;;;;;2.28;1.10;;;15.40;99.90;;;;;;10294553;28;20097;-58
2022/05/20 22:42:44;;;;;;;1.67;0.70;;;15.40;99.90;;;;;;10294887;28;20050;-58
2022/05/20 22:47:46;;;;;;;4.38;0.80;;;15.40;99.90;;;;;;10293331;28;20156;-59
2022/05/20 22:52:49;;;;;;;1.63;0.80;;;15.40;99.90;;;;;;10297940;28;20054;-58
2022/05/20 22:57:51;;;;;;;2.55;0.80;;;15.40;99.90;;;;;;10293740;28;20473;-58
2022/05/20 23:02:53;;;;;;;2.35;0.50;;;15.30;99.90;;;;;;10297564;28;20062;-58
2022/05/20 23:07:55;;;;;;;0.55;0.40;;;15.30;99.90;;;;;;10298831;28;20209;-59
2022/05/20 23:12:57;;;;;;;1.48;0.50;;;15.20;99.90;;;;;;10299261;28;20062;-57
2022/05/20 23:17:59;;;;;;;1.17;0.50;;;15.10;99.90;;;;;;10294798;28;20050;-57
2022/05/20 23:23:01;;;;;;;2.08;0.40;;;15.00;99.90;;;;;;10295208;28;20125;-57
2022/05/20 23:28:03;;;;;;;1.02;0.32;;;14.90;99.90;;;;;;10294420;28;20050;-56
2022/05/20 23:33:05;;;;;;;1.30;0.40;;;14.80;99.90;;;;;;10292110;28;20100;-57
2022/05/20 23:38:08;;;;;;;0.60;0.30;;;14.70;99.90;;;;;;10294586;28;20112;-57
2022/05/20 23:43:13;;;;;;;2.80;0.40;;;14.70;99.90;;;;;;10297557;28;20610;-57
2022/05/20 23:48:15;;;;;;;0.32;0.30;;;14.60;99.90;;;;;;10290432;28;20066;-57
2022/05/20 23:53:17;;;;;;;0.95;0.40;;;14.60;99.90;;;;;;10299722;28;20442;-57
2022/05/20 23:58:19;;;;;;;0.60;0.30;;;14.50;99.90;;;;;;10298056;28;20086;-57
